TimeHST,TemperatureF,Dew PointF,Humidity,Sea Level PressureIn,VisibilityMPH,Wind Direction,Wind SpeedMPH,Gust SpeedMPH,PrecipitationIn,Events,Conditions,WindDirDegrees,DateUTC
12:54 AM,73.0,72.0,96,30.00,10.0,NNE,4.6,-,0.00,,Clear,20,2013-11-06 10:54:00
1:54 AM,-9999,-9999,N/A,29.98,10.0,NNE,6.9,-,N/A,,Clear,20,2013-11-06 11:54:00
2:54 AM,-9999,-9999,N/A,29.97,10.0,North,5.8,-,0.00,Rain,Light Rain,10,2013-11-06 12:54:00
3:54 AM,72.0,70.0,93,29.97,10.0,NE,8.1,-,0.00,,Mostly Cloudy,40,2013-11-06 13:54:00
4:54 AM,72.0,68.0,87,29.97,10.0,NNE,5.8,-,N/A,,Partly Cloudy,20,2013-11-06 14:54:00
5:54 AM,72.0,69.1,91,29.99,10.0,NE,8.1,-,N/A,,Mostly Cloudy,50,2013-11-06 15:54:00
6:54 AM,73.0,68.0,84,30.00,10.0,North,5.8,-,N/A,,Scattered Clouds,10,2013-11-06 16:54:00
7:54 AM,75.9,70.0,82,30.01,10.0,Variable,4.6,-,N/A,,Scattered Clouds,0,2013-11-06 17:54:00
8:54 AM,80.1,68.0,67,30.01,10.0,NNE,9.2,-,N/A,,Scattered Clouds,30,2013-11-06 18:54:00
9:54 AM,82.0,68.0,62,30.00,10.0,NNE,8.1,-,N/A,,Scattered Clouds,20,2013-11-06 19:54:00
10:54 AM,81.0,69.1,67,29.98,10.0,North,8.1,-,N/A,,Clear,360,2013-11-06 20:54:00
11:54 AM,84.0,68.0,58,29.95,10.0,North,11.5,-,N/A,,Clear,10,2013-11-06 21:54:00
12:54 PM,82.0,69.1,65,29.94,10.0,NNE,11.5,17.3,N/A,,Scattered Clouds,30,2013-11-06 22:54:00
1:54 PM,79.0,69.1,72,29.91,10.0,NNE,10.4,-,N/A,,Partly Cloudy,20,2013-11-06 23:54:00
2:54 PM,79.0,69.1,72,29.90,10.0,NNE,8.1,-,N/A,,Scattered Clouds,30,2013-11-07 00:54:00
3:54 PM,79.0,70.0,74,29.91,10.0,NNE,9.2,-,N/A,,Scattered Clouds,30,2013-11-07 01:54:00
4:54 PM,78.1,69.1,74,29.91,10.0,NNE,5.8,-,N/A,,Scattered Clouds,30,2013-11-07 02:54:00
5:54 PM,75.0,69.1,82,29.92,10.0,NE,6.9,-,N/A,,Partly Cloudy,40,2013-11-07 03:54:00
6:54 PM,73.9,69.1,85,29.93,10.0,NE,5.8,-,N/A,,Clear,40,2013-11-07 04:54:00
7:54 PM,73.9,66.9,79,29.96,10.0,NNE,6.9,-,N/A,,Clear,30,2013-11-07 05:54:00
8:54 PM,73.0,66.9,81,29.97,10.0,NNE,4.6,-,N/A,,Clear,20,2013-11-07 06:54:00
9:54 PM,73.0,66.9,81,29.98,10.0,NNE,5.8,-,N/A,,Clear,20,2013-11-07 07:54:00
10:54 PM,73.0,66.9,81,29.97,10.0,NE,3.5,-,N/A,,Clear,50,2013-11-07 08:54:00
11:54 PM,70.0,64.9,84,29.96,10.0,Calm,Calm,-,N/A,,Clear,0,2013-11-07 09:54:00